createdAt,value
2022-10-11T00:00:55.165Z,7.90
2022-10-11T00:03:22.618Z,6.97
2022-10-11T00:05:49.721Z,3.40
2022-10-11T00:08:16.951Z,3.03
2022-10-11T00:10:44.025Z,3.20
2022-10-11T00:13:11.180Z,3.20
2022-10-11T00:15:40.753Z,4.20
2022-10-11T00:18:07.669Z,10.30
2022-10-11T00:20:34.596Z,4.10
2022-10-11T00:23:01.741Z,6.97
2022-10-11T00:25:28.691Z,3.90
2022-10-11T00:27:55.869Z,5.77
2022-10-11T00:30:22.793Z,3.70
2022-10-11T00:32:50.632Z,5.30
2022-10-11T00:35:17.921Z,3.80
2022-10-11T00:37:45.197Z,4.83
2022-10-11T00:40:16.868Z,2.93
2022-10-11T00:42:44.080Z,3.00
2022-10-11T00:45:26.023Z,3.67
2022-10-11T00:48:00.930Z,6.10
2022-10-11T00:50:32.371Z,4.30
2022-10-11T00:53:05.953Z,7.00
2022-10-11T00:55:38.961Z,6.17
2022-10-11T00:58:07.550Z,5.40
2022-10-11T01:00:34.745Z,5.30
2022-10-11T01:03:03.266Z,8.10
2022-10-11T01:05:31.464Z,4.00
2022-10-11T01:08:01.004Z,6.43
2022-10-11T01:10:29.021Z,4.97
2022-10-11T01:13:17.607Z,10.20
2022-10-11T01:16:02.289Z,5.97
2022-10-11T01:18:54.963Z,3.90
2022-10-11T01:22:21.369Z,4.67
2022-10-11T01:25:54.495Z,4.13
2022-10-11T01:28:43.126Z,14.23
2022-10-11T01:31:38.520Z,9.43
2022-10-11T01:34:17.075Z,8.67
2022-10-11T01:37:07.937Z,4.30
2022-10-11T01:39:48.607Z,5.17
2022-10-11T01:42:18.136Z,5.60
2022-10-11T01:44:49.134Z,7.70
2022-10-11T01:47:23.722Z,7.63
2022-10-11T01:50:01.331Z,3.57
2022-10-11T01:52:33.913Z,2.80
2022-10-11T01:55:39.580Z,6.30
2022-10-11T01:58:32.477Z,4.13
2022-10-11T02:01:27.958Z,4.50
2022-10-11T02:04:23.985Z,5.27
2022-10-11T02:07:16.291Z,4.07
2022-10-11T02:09:57.644Z,6.57
2022-10-11T02:12:36.746Z,3.13
2022-10-11T02:15:09.274Z,2.83
2022-10-11T02:17:44.964Z,4.20
2022-10-11T02:20:19.606Z,6.37
2022-10-11T02:22:51.584Z,2.40
2022-10-11T02:25:25.672Z,10.03
2022-10-11T02:27:58.351Z,6.03
2022-10-11T02:30:25.430Z,2.10
2022-10-11T02:32:55.457Z,5.00
2022-10-11T02:35:27.438Z,3.67
2022-10-11T02:38:05.886Z,5.90
2022-10-11T02:40:37.377Z,4.17
2022-10-11T02:43:17.510Z,4.60
2022-10-11T02:45:55.261Z,5.43
2022-10-11T02:48:25.095Z,3.57
2022-10-11T02:50:53.526Z,4.83
2022-10-11T02:53:22.767Z,3.17
2022-10-11T02:55:52.232Z,3.60
2022-10-11T02:58:19.733Z,3.73
2022-10-11T03:00:46.944Z,5.93
2022-10-11T03:03:14.161Z,5.97
2022-10-11T03:05:41.534Z,5.10
2022-10-11T03:08:11.177Z,8.93
2022-10-11T03:10:38.864Z,5.30
2022-10-11T03:13:05.998Z,7.53
2022-10-11T03:15:34.041Z,6.97
2022-10-11T03:18:01.163Z,4.57
2022-10-11T03:20:28.210Z,3.90
2022-10-11T03:22:55.316Z,3.27
2022-10-11T03:25:22.413Z,5.47
2022-10-11T03:27:49.321Z,8.60
2022-10-11T03:30:18.466Z,6.63
2022-10-11T03:32:46.430Z,5.13
2022-10-11T03:35:13.617Z,6.20
2022-10-11T03:37:40.734Z,5.17
2022-10-11T03:40:08.858Z,4.93
2022-10-11T03:42:37.051Z,5.93
2022-10-11T03:45:08.192Z,7.50
2022-10-11T03:47:37.609Z,3.60
2022-10-11T03:50:07.205Z,5.43
2022-10-11T03:52:34.642Z,4.50
2022-10-11T03:55:01.610Z,4.47
2022-10-11T03:57:28.591Z,5.80
2022-10-11T03:59:55.522Z,7.10
2022-10-11T04:02:22.491Z,3.70
2022-10-11T04:04:49.702Z,5.63
2022-10-11T04:07:16.653Z,7.50
2022-10-11T04:09:43.556Z,6.87
2022-10-11T04:12:10.551Z,6.43
2022-10-11T04:14:37.731Z,4.57
2022-10-11T04:17:04.899Z,7.07
2022-10-11T04:19:31.883Z,5.10
2022-10-11T04:21:58.970Z,13.63
2022-10-11T04:24:26.084Z,4.03
2022-10-11T04:26:53.209Z,5.57
2022-10-11T04:29:20.112Z,6.87
2022-10-11T04:31:47.318Z,15.50
2022-10-11T04:34:14.673Z,4.10
2022-10-11T04:36:44.349Z,7.17
2022-10-11T04:39:13.352Z,3.93
2022-10-11T04:41:40.516Z,4.13
2022-10-11T04:44:07.400Z,4.00
2022-10-11T04:46:34.490Z,9.33
2022-10-11T04:49:01.433Z,9.23
2022-10-11T04:51:28.935Z,4.63
2022-10-11T04:53:55.933Z,5.50
2022-10-11T04:56:22.852Z,4.17
2022-10-11T04:58:53.934Z,7.03
2022-10-11T05:01:21.636Z,5.03
2022-10-11T05:03:49.411Z,5.40
2022-10-11T05:06:16.663Z,4.77
2022-10-11T05:08:43.582Z,4.43
2022-10-11T05:11:17.094Z,3.30
2022-10-11T05:13:45.852Z,3.43
2022-10-11T05:16:14.062Z,4.00
2022-10-11T05:18:41.782Z,2.90
2022-10-11T05:21:26.660Z,4.27
2022-10-11T05:23:56.925Z,4.30
2022-10-11T05:26:27.564Z,5.70
2022-10-11T05:28:55.894Z,4.80
2022-10-11T05:31:23.166Z,8.53
2022-10-11T05:33:50.900Z,6.70
2022-10-11T05:36:18.213Z,3.83
2022-10-11T05:38:45.568Z,6.10
2022-10-11T05:41:16.488Z,3.93
2022-10-11T05:43:44.774Z,5.33
2022-10-11T05:46:13.417Z,5.23
2022-10-11T05:48:41.148Z,8.17
2022-10-11T05:51:10.808Z,8.83
2022-10-11T05:53:39.741Z,4.70
2022-10-11T05:56:22.887Z,6.23
2022-10-11T05:58:50.859Z,5.80
2022-10-11T06:01:24.920Z,6.50
2022-10-11T06:03:52.670Z,4.00
2022-10-11T06:06:20.762Z,3.57
2022-10-11T06:08:48.224Z,4.10
2022-10-11T06:11:22.252Z,8.13
2022-10-11T06:13:49.245Z,4.23
2022-10-11T06:16:16.386Z,4.23
2022-10-11T06:18:43.378Z,5.63
2022-10-11T06:21:10.445Z,4.93
2022-10-11T06:23:37.623Z,5.03
2022-10-11T06:26:08.603Z,5.00
2022-10-11T06:28:37.287Z,8.10
2022-10-11T06:31:06.521Z,5.70
2022-10-11T06:33:34.553Z,5.90
2022-10-11T06:36:07.309Z,8.90
2022-10-11T06:38:34.638Z,6.97
2022-10-11T06:41:23.675Z,7.60
2022-10-11T06:43:51.139Z,9.07
2022-10-11T06:46:24.400Z,6.47
2022-10-11T06:48:52.466Z,5.10
2022-10-11T06:51:23.057Z,6.20
2022-10-11T06:53:56.665Z,4.60
2022-10-11T06:56:25.113Z,5.47
2022-10-11T06:58:54.764Z,8.00
2022-10-11T07:01:23.928Z,6.10
2022-10-11T07:03:53.747Z,7.33
2022-10-11T07:06:25.892Z,5.77
2022-10-11T07:08:54.461Z,6.97
2022-10-11T07:11:25.958Z,6.93
2022-10-11T07:13:59.408Z,7.00
2022-10-11T07:16:30.785Z,7.23
2022-10-11T07:19:01.079Z,10.60
2022-10-11T07:21:31.219Z,7.93
2022-10-11T07:23:58.606Z,7.47
2022-10-11T07:26:27.974Z,7.70
2022-10-11T07:28:55.223Z,7.07
2022-10-11T07:31:26.784Z,10.27
2022-10-11T07:33:54.364Z,6.73
2022-10-11T07:36:23.140Z,15.20
2022-10-11T07:38:51.022Z,7.47
2022-10-11T07:41:17.990Z,10.00
2022-10-11T07:43:46.981Z,14.33
2022-10-11T07:46:14.770Z,9.80
2022-10-11T07:48:42.074Z,12.33
2022-10-11T07:51:16.074Z,10.67
2022-10-11T07:53:46.677Z,10.13
2022-10-11T07:56:17.899Z,10.63
2022-10-11T07:58:49.180Z,13.07
2022-10-11T08:01:16.157Z,11.40
2022-10-11T08:03:43.282Z,9.10
2022-10-11T08:06:14.052Z,9.20
2022-10-11T08:08:41.245Z,13.73
2022-10-11T08:11:08.599Z,15.00
2022-10-11T08:13:35.905Z,16.37
2022-10-11T08:16:12.183Z,11.30
2022-10-11T08:18:39.217Z,11.97
2022-10-11T08:21:12.834Z,9.47
2022-10-11T08:23:39.905Z,11.10
2022-10-11T08:26:07.808Z,11.60
2022-10-11T08:28:35.604Z,12.27
2022-10-11T08:31:03.069Z,11.10
2022-10-11T08:33:30.974Z,15.40
2022-10-11T08:35:58.437Z,16.57
2022-10-11T08:38:25.860Z,11.57
2022-10-11T08:40:59.646Z,12.10
2022-10-11T08:43:46.713Z,12.80
2022-10-11T08:46:15.333Z,13.73
2022-10-11T08:48:47.314Z,12.47
2022-10-11T08:51:43.279Z,12.00
2022-10-11T08:54:32.131Z,11.33
2022-10-11T08:57:03.874Z,10.90
2022-10-11T08:59:44.928Z,13.33
2022-10-11T09:03:08.592Z,12.97
2022-10-11T09:05:54.709Z,13.50
2022-10-11T09:08:52.606Z,14.57
2022-10-11T09:11:51.693Z,13.50
2022-10-11T09:14:37.159Z,19.17
2022-10-11T09:17:45.421Z,14.50
2022-10-11T09:20:53.118Z,14.10
2022-10-11T09:23:56.935Z,14.73
2022-10-11T09:26:34.670Z,17.33
2022-10-11T09:29:10.743Z,15.33
2022-10-11T09:31:37.942Z,20.07
2022-10-11T09:34:14.879Z,17.03
2022-10-11T09:37:13.772Z,16.77
2022-10-11T09:39:50.989Z,17.37
2022-10-11T09:42:18.008Z,19.50
2022-10-11T09:44:51.147Z,18.73
2022-10-11T09:47:29.033Z,21.00
2022-10-11T09:50:15.361Z,19.10
2022-10-11T09:52:56.470Z,24.30
2022-10-11T09:55:54.410Z,23.57
2022-10-11T09:58:34.888Z,20.63
2022-10-11T10:01:08.581Z,24.50
2022-10-11T10:03:39.151Z,17.50
2022-10-11T10:06:28.582Z,20.93
2022-10-11T10:09:15.468Z,26.93
2022-10-11T10:11:42.842Z,17.43
2022-10-11T10:14:22.048Z,20.73
2022-10-11T10:16:58.285Z,21.43
2022-10-11T10:19:25.634Z,24.03
2022-10-11T10:21:55.348Z,20.43
2022-10-11T10:24:33.608Z,25.07
2022-10-11T10:27:20.907Z,19.17
2022-10-11T10:30:09.143Z,20.60
2022-10-11T10:33:05.913Z,21.80
2022-10-11T10:36:12.484Z,23.80
2022-10-11T10:38:57.422Z,20.97
2022-10-11T10:41:24.375Z,18.50
2022-10-11T10:43:59.092Z,24.00
2022-10-11T10:46:52.042Z,21.90
2022-10-11T10:49:53.522Z,20.67
2022-10-11T10:52:45.259Z,25.67
2022-10-11T10:55:25.582Z,19.73
2022-10-11T10:58:12.864Z,25.67
2022-10-11T11:00:52.223Z,20.50
2022-10-11T11:03:27.627Z,24.10
2022-10-11T11:06:17.549Z,22.93
2022-10-11T11:09:15.505Z,26.23
2022-10-11T11:12:07.450Z,23.93
2022-10-11T11:14:50.873Z,23.33
2022-10-11T11:17:40.275Z,30.37
2022-10-11T11:20:44.384Z,27.20
2022-10-11T11:23:29.428Z,22.87
2022-10-11T11:26:19.696Z,26.37
2022-10-11T11:29:18.236Z,23.47
2022-10-11T11:32:02.455Z,28.40
2022-10-11T11:34:47.474Z,20.97
2022-10-11T11:37:32.364Z,25.23
2022-10-11T11:40:15.906Z,39.13
2022-10-11T11:45:57.863Z,26.10
2022-10-11T11:48:26.956Z,26.43
2022-10-11T11:51:15.001Z,26.70
2022-10-11T11:54:09.282Z,23.03
2022-10-11T11:56:45.240Z,25.03
2022-10-11T11:59:30.608Z,24.23
2022-10-11T12:02:38.375Z,18.53
2022-10-11T12:05:18.002Z,21.30
2022-10-11T12:08:08.197Z,24.40
2022-10-11T12:10:54.213Z,21.37
2022-10-11T12:13:38.569Z,24.03
2022-10-11T12:16:19.504Z,17.53
2022-10-11T12:19:01.484Z,24.90
2022-10-11T12:21:43.987Z,20.40
2022-10-11T12:24:19.928Z,19.60
2022-10-11T12:27:37.973Z,20.60
2022-10-11T12:30:47.215Z,22.23
2022-10-11T12:33:21.396Z,23.27
2022-10-11T12:35:54.169Z,22.93
2022-10-11T12:38:28.765Z,25.10
2022-10-11T12:41:09.690Z,19.73
2022-10-11T12:44:18.612Z,29.03
2022-10-11T12:46:53.566Z,20.77
2022-10-11T12:49:54.035Z,19.20
2022-10-11T12:52:49.071Z,13.53
2022-10-11T12:55:43.959Z,18.47
2022-10-11T12:58:38.613Z,16.90
2022-10-11T13:01:15.020Z,15.40
2022-10-11T13:03:59.290Z,13.93
2022-10-11T13:06:47.272Z,13.63
2022-10-11T13:09:39.443Z,19.90
2022-10-11T13:12:14.761Z,21.67
2022-10-11T13:14:58.101Z,13.93
2022-10-11T13:17:39.846Z,18.43
2022-10-11T13:20:24.764Z,18.00
2022-10-11T13:22:56.506Z,21.43
2022-10-11T13:25:27.960Z,16.20
2022-10-11T13:27:58.620Z,25.67
2022-10-11T13:30:34.349Z,16.63
2022-10-11T13:33:23.514Z,13.30
2022-10-11T13:35:52.349Z,14.17
2022-10-11T13:38:30.996Z,16.73
2022-10-11T13:41:02.841Z,13.43
2022-10-11T13:43:30.953Z,15.13
2022-10-11T13:46:01.342Z,12.77
2022-10-11T13:48:31.902Z,15.07
2022-10-11T13:51:28.340Z,9.73
2022-10-11T13:54:13.417Z,16.03
2022-10-11T13:56:52.090Z,14.40
2022-10-11T13:59:25.557Z,13.63
2022-10-11T14:02:00.092Z,11.90
2022-10-11T14:04:30.036Z,13.30
2022-10-11T14:07:02.655Z,13.37
2022-10-11T14:09:37.865Z,10.80
2022-10-11T14:12:32.863Z,10.10
2022-10-11T14:15:02.147Z,16.57
2022-10-11T14:17:46.041Z,15.70
2022-10-11T14:20:39.172Z,13.50
2022-10-11T14:23:06.670Z,8.30
2022-10-11T14:25:34.524Z,8.70
2022-10-11T14:28:01.805Z,12.10
2022-10-11T14:30:31.653Z,13.17
2022-10-11T14:33:01.676Z,11.27
2022-10-11T14:35:32.439Z,10.03
2022-10-11T14:37:59.639Z,8.97
2022-10-11T14:40:30.495Z,11.43
2022-10-11T14:42:58.178Z,10.63
2022-10-11T14:45:25.369Z,14.40
2022-10-11T14:47:52.482Z,10.27
2022-10-11T14:50:21.462Z,8.93
2022-10-11T14:52:48.548Z,9.60
2022-10-11T14:55:15.567Z,9.03
2022-10-11T14:57:42.488Z,14.47
2022-10-11T15:00:36.983Z,12.70
2022-10-11T15:03:07.407Z,20.10
2022-10-11T15:05:34.829Z,21.63
2022-10-11T15:08:04.190Z,20.40
2022-10-11T15:10:37.806Z,17.50
2022-10-11T15:13:07.132Z,19.67
2022-10-11T15:15:36.899Z,16.60
2022-10-11T15:18:07.636Z,22.93
2022-10-11T15:20:40.120Z,19.00
2022-10-11T15:23:09.911Z,18.10
2022-10-11T15:25:39.882Z,19.83
2022-10-11T15:28:07.932Z,25.70
2022-10-11T15:30:41.372Z,23.23
2022-10-11T15:33:09.176Z,14.20
2022-10-11T15:35:36.531Z,18.33
2022-10-11T15:38:03.932Z,15.33
2022-10-11T15:40:35.523Z,9.20
2022-10-11T15:43:03.487Z,9.90
2022-10-11T15:45:31.280Z,14.53
2022-10-11T15:47:58.410Z,13.10
2022-10-11T15:50:35.241Z,12.70
2022-10-11T15:53:13.503Z,10.60
2022-10-11T15:55:55.613Z,11.40
2022-10-11T15:58:27.013Z,14.83
2022-10-11T16:00:58.480Z,6.87
2022-10-11T16:03:28.930Z,10.60
2022-10-11T16:05:58.945Z,10.10
2022-10-11T16:08:29.813Z,7.30
2022-10-11T16:10:57.289Z,7.10
2022-10-11T16:13:24.516Z,9.17
2022-10-11T16:15:51.567Z,9.17
2022-10-11T16:18:21.183Z,11.10
2022-10-11T16:20:51.814Z,14.10
2022-10-11T16:23:20.780Z,10.93
2022-10-11T16:26:05.136Z,10.77
2022-10-11T16:28:33.023Z,9.67
2022-10-11T16:31:00.221Z,6.43
2022-10-11T16:33:27.414Z,6.60
2022-10-11T16:36:14.314Z,7.23
2022-10-11T16:38:41.582Z,9.13
2022-10-11T16:41:08.626Z,10.40
2022-10-11T16:43:35.762Z,9.70
2022-10-11T16:46:02.981Z,9.77
2022-10-11T16:48:30.489Z,11.57
2022-10-11T16:51:08.794Z,9.00
2022-10-11T16:53:36.132Z,8.27
2022-10-11T16:56:11.336Z,8.10
2022-10-11T16:58:38.493Z,8.23
2022-10-11T17:01:10.112Z,7.37
2022-10-11T17:03:37.534Z,7.90
2022-10-11T17:06:05.975Z,13.30
2022-10-11T17:08:33.441Z,10.97
2022-10-11T17:11:00.723Z,7.67
2022-10-11T17:13:27.958Z,14.73
2022-10-11T17:15:54.909Z,9.83
2022-10-11T17:18:22.151Z,10.87
2022-10-11T17:20:49.496Z,13.13
2022-10-11T17:23:16.642Z,8.20
2022-10-11T17:25:46.259Z,21.23
2022-10-11T17:28:15.875Z,10.90
2022-10-11T17:30:42.817Z,8.13
2022-10-11T17:33:09.985Z,7.73
2022-10-11T17:35:36.937Z,9.97
2022-10-11T17:38:06.418Z,8.63
2022-10-11T17:40:33.475Z,6.90
2022-10-11T17:43:00.422Z,12.80
2022-10-11T17:45:27.325Z,8.83
2022-10-11T17:47:54.329Z,7.10
2022-10-11T17:50:21.344Z,8.70
2022-10-11T17:52:49.081Z,7.33
2022-10-11T17:55:16.250Z,7.37
2022-10-11T17:57:43.707Z,8.47
2022-10-11T18:00:11.708Z,9.63
2022-10-11T18:02:40.177Z,10.73
2022-10-11T18:05:08.640Z,9.13
2022-10-11T18:07:35.625Z,13.03
2022-10-11T18:10:03.039Z,11.83
2022-10-11T18:12:30.991Z,9.07
2022-10-11T18:14:58.075Z,14.90
2022-10-11T18:17:25.065Z,11.63
2022-10-11T18:19:52.004Z,11.07
2022-10-11T18:22:19.122Z,8.90
2022-10-11T18:24:46.103Z,7.93
2022-10-11T18:27:13.439Z,7.80
2022-10-11T18:29:40.738Z,10.60
2022-10-11T18:32:07.687Z,14.67
2022-10-11T18:34:34.633Z,8.43
2022-10-11T18:37:02.212Z,7.43
2022-10-11T18:39:29.170Z,12.33
2022-10-11T18:41:56.613Z,11.63
2022-10-11T18:44:23.562Z,9.50
2022-10-11T18:46:51.055Z,7.40
2022-10-11T18:49:18.053Z,11.27
2022-10-11T18:51:46.372Z,12.97
2022-10-11T18:54:16.743Z,9.70
2022-10-11T18:56:47.173Z,10.70
2022-10-11T18:59:14.151Z,10.90
2022-10-11T19:01:44.597Z,10.30
2022-10-11T19:04:18.379Z,8.27
2022-10-11T19:06:48.880Z,11.67
2022-10-11T19:09:26.029Z,17.17
2022-10-11T19:11:55.779Z,9.53
2022-10-11T19:14:30.109Z,9.23
2022-10-11T19:16:57.738Z,7.97
2022-10-11T19:19:27.959Z,10.93
2022-10-11T19:21:55.539Z,13.10
2022-10-11T19:24:26.544Z,7.93
2022-10-11T19:26:59.715Z,8.50
2022-10-11T19:29:28.717Z,11.70
2022-10-11T19:31:58.461Z,11.90
2022-10-11T19:34:27.601Z,9.90
2022-10-11T19:36:56.709Z,11.43
2022-10-11T19:39:24.643Z,11.53
2022-10-11T19:41:52.584Z,8.60
2022-10-11T19:44:20.236Z,10.37
2022-10-11T19:46:52.053Z,10.73
2022-10-11T19:49:23.975Z,9.07
2022-10-11T19:51:52.693Z,18.97
2022-10-11T19:54:19.794Z,11.20
2022-10-11T19:56:47.141Z,9.70
2022-10-11T19:59:14.997Z,12.60
2022-10-11T20:01:43.299Z,18.43
2022-10-11T20:04:33.228Z,10.50
2022-10-11T20:07:00.128Z,12.80
2022-10-11T20:09:29.841Z,11.33
2022-10-11T20:11:57.317Z,13.17
2022-10-11T20:14:24.455Z,13.43
2022-10-11T20:16:52.063Z,13.53
2022-10-11T20:19:19.453Z,14.23
2022-10-11T20:21:47.281Z,16.10
2022-10-11T20:24:14.286Z,14.17
2022-10-11T20:26:41.229Z,10.93
2022-10-11T20:29:08.388Z,13.43
2022-10-11T20:31:40.781Z,16.90
2022-10-11T20:34:09.041Z,10.73
2022-10-11T20:36:36.602Z,12.53
2022-10-11T20:39:05.240Z,12.73
2022-10-11T20:41:39.988Z,10.70
2022-10-11T20:44:08.819Z,10.33
2022-10-11T20:46:39.141Z,12.67
2022-10-11T20:49:10.409Z,10.23
2022-10-11T20:51:39.935Z,9.03
2022-10-11T20:54:06.928Z,9.23
2022-10-11T20:56:35.050Z,12.60
2022-10-11T20:59:02.438Z,12.67
2022-10-11T21:01:34.359Z,11.70
2022-10-11T21:04:02.441Z,14.07
2022-10-11T21:06:32.020Z,14.80
2022-10-11T21:09:00.249Z,10.17
2022-10-11T21:11:28.849Z,13.77
2022-10-11T21:14:00.944Z,16.90
2022-10-11T21:16:28.223Z,14.40
2022-10-11T21:18:58.057Z,11.30
2022-10-11T21:21:26.172Z,11.57
2022-10-11T21:23:58.102Z,14.03
2022-10-11T21:26:25.836Z,12.17
2022-10-11T21:28:53.288Z,14.57
2022-10-11T21:31:23.048Z,10.73
2022-10-11T21:33:50.189Z,16.70
2022-10-11T21:36:20.486Z,14.30
2022-10-11T21:38:48.308Z,13.90
2022-10-11T21:41:21.816Z,14.70
2022-10-11T21:43:49.780Z,14.30
2022-10-11T21:46:47.426Z,11.60
2022-10-11T21:49:14.997Z,12.43
2022-10-11T21:51:42.623Z,15.97
2022-10-11T21:54:09.837Z,14.90
2022-10-11T21:56:37.337Z,13.57
2022-10-11T21:59:06.633Z,15.23
2022-10-11T22:01:37.100Z,17.87
2022-10-11T22:04:07.106Z,12.63
2022-10-11T22:06:35.117Z,14.27
2022-10-11T22:09:03.692Z,11.53
2022-10-11T22:11:31.201Z,12.80
2022-10-11T22:13:58.476Z,11.63
2022-10-11T22:16:25.455Z,12.83
2022-10-11T22:18:54.313Z,15.53
2022-10-11T22:21:23.568Z,19.37
2022-10-11T22:23:53.188Z,14.73
2022-10-11T22:26:23.916Z,14.20
2022-10-11T22:28:51.544Z,16.90
2022-10-11T22:31:20.376Z,15.30
2022-10-11T22:33:48.094Z,12.97
2022-10-11T22:36:19.131Z,12.07
2022-10-11T22:38:46.935Z,10.70
2022-10-11T22:41:14.035Z,11.77
2022-10-11T22:43:41.481Z,9.03
2022-10-11T22:46:08.737Z,9.30
2022-10-11T22:48:36.410Z,13.90
2022-10-11T22:51:03.584Z,12.87
2022-10-11T22:53:30.784Z,8.80
2022-10-11T22:55:58.312Z,10.60
2022-10-11T22:58:25.540Z,9.63
2022-10-11T23:00:52.709Z,9.17
2022-10-11T23:03:20.146Z,9.30
2022-10-11T23:05:57.897Z,7.57
2022-10-11T23:08:25.523Z,10.43
2022-10-11T23:10:52.866Z,7.60
2022-10-11T23:13:20.071Z,9.17
2022-10-11T23:15:47.214Z,9.00
2022-10-11T23:18:16.558Z,7.07
2022-10-11T23:20:43.506Z,12.23
2022-10-11T23:23:10.667Z,15.03
2022-10-11T23:25:37.587Z,7.40
2022-10-11T23:28:05.062Z,8.93
2022-10-11T23:30:32.049Z,11.00
2022-10-11T23:32:59.263Z,9.70
2022-10-11T23:35:26.307Z,10.50
2022-10-11T23:37:54.827Z,10.23
2022-10-11T23:40:21.836Z,12.40
2022-10-11T23:42:48.968Z,8.33
2022-10-11T23:45:16.637Z,11.80
2022-10-11T23:47:43.736Z,11.90
2022-10-11T23:50:10.941Z,9.87
2022-10-11T23:52:38.084Z,8.17
2022-10-11T23:55:05.473Z,8.17
2022-10-11T23:57:32.799Z,7.50
2022-10-11T23:59:59.718Z,7.60
